Addison, Illinois
Current Conditions -  °F | °C
As of 2:51 AM on Monday 20 Oct 2014 (Local Time) from KORD Reporting Station
Clear Clear  
Wind Chill: 10°   Ceiling: Unl
Heat Index: 10°   Visibility: 10mi
Dew Point:   Wind: 10mph
Humidity: 77%   Direction: 210°SSW
Pressure: 29.84"   Gusts: NA
Location:  41.93°N, 87.99°W
Report Text: KORD 200751Z 21009KT 10SM CLR 10/06 A2984 RMK AO2 SLP105 T01000061 $
Loading
Personal Weather Stations






























Interactive Weather Map
Tropical Storm Tracking
New forecast layout! Learn more

10-Day Weather Forecast

Advertisements
Track Severe Weather on mobile